sensor_id;sensor_type;location;lat;lon;timestamp;temperature;humidity
31819;DHT22;18384;48.860;9.188;2022-07-21T00:01:51;23.00;98.40
31819;DHT22;18384;48.860;9.188;2022-07-21T00:04:19;23.00;98.10
31819;DHT22;18384;48.860;9.188;2022-07-21T00:06:47;23.00;97.80
31819;DHT22;18384;48.860;9.188;2022-07-21T00:09:14;23.10;97.80
31819;DHT22;18384;48.860;9.188;2022-07-21T00:11:41;23.00;97.70
31819;DHT22;18384;48.860;9.188;2022-07-21T00:14:08;23.00;97.60
31819;DHT22;18384;48.860;9.188;2022-07-21T00:16:37;23.00;97.70
31819;DHT22;18384;48.860;9.188;2022-07-21T00:19:04;23.00;97.50
31819;DHT22;18384;48.860;9.188;2022-07-21T00:21:30;23.00;97.80
31819;DHT22;18384;48.860;9.188;2022-07-21T00:23:56;22.90;98.30
31819;DHT22;18384;48.860;9.188;2022-07-21T00:26:23;22.80;98.40
31819;DHT22;18384;48.860;9.188;2022-07-21T00:28:49;22.80;98.60
31819;DHT22;18384;48.860;9.188;2022-07-21T00:31:15;22.80;98.50
31819;DHT22;18384;48.860;9.188;2022-07-21T00:33:42;22.80;98.50
31819;DHT22;18384;48.860;9.188;2022-07-21T00:36:08;22.80;98.40
31819;DHT22;18384;48.860;9.188;2022-07-21T00:38:34;22.60;98.60
31819;DHT22;18384;48.860;9.188;2022-07-21T00:41:01;22.70;98.70
31819;DHT22;18384;48.860;9.188;2022-07-21T00:43:26;22.60;98.70
31819;DHT22;18384;48.860;9.188;2022-07-21T00:45:54;22.60;98.80
31819;DHT22;18384;48.860;9.188;2022-07-21T00:48:20;22.60;98.60
31819;DHT22;18384;48.860;9.188;2022-07-21T00:50:47;22.60;98.60
31819;DHT22;18384;48.860;9.188;2022-07-21T00:53:13;22.60;98.70
31819;DHT22;18384;48.860;9.188;2022-07-21T00:55:41;22.60;99.10
31819;DHT22;18384;48.860;9.188;2022-07-21T00:58:08;22.60;99.00
31819;DHT22;18384;48.860;9.188;2022-07-21T01:00:35;22.70;98.90
31819;DHT22;18384;48.860;9.188;2022-07-21T01:03:01;22.70;98.00
31819;DHT22;18384;48.860;9.188;2022-07-21T01:05:27;22.70;98.00
31819;DHT22;18384;48.860;9.188;2022-07-21T01:07:55;22.70;97.80
31819;DHT22;18384;48.860;9.188;2022-07-21T01:10:25;22.70;97.90
31819;DHT22;18384;48.860;9.188;2022-07-21T01:12:51;22.70;98.60
31819;DHT22;18384;48.860;9.188;2022-07-21T01:15:19;22.60;98.40
31819;DHT22;18384;48.860;9.188;2022-07-21T01:17:47;22.60;98.70
31819;DHT22;18384;48.860;9.188;2022-07-21T01:20:15;22.70;98.80
31819;DHT22;18384;48.860;9.188;2022-07-21T01:22:45;22.60;98.50
31819;DHT22;18384;48.860;9.188;2022-07-21T01:25:14;22.60;98.70
31819;DHT22;18384;48.860;9.188;2022-07-21T01:27:40;22.70;98.90
31819;DHT22;18384;48.860;9.188;2022-07-21T01:30:07;22.70;98.90
31819;DHT22;18384;48.860;9.188;2022-07-21T01:32:39;22.70;98.80
31819;DHT22;18384;48.860;9.188;2022-07-21T01:35:08;22.60;98.50
31819;DHT22;18384;48.860;9.188;2022-07-21T01:37:40;22.60;98.60
31819;DHT22;18384;48.860;9.188;2022-07-21T01:40:09;22.60;98.60
31819;DHT22;18384;48.860;9.188;2022-07-21T01:42:54;22.60;98.80
31819;DHT22;18384;48.860;9.188;2022-07-21T01:45:21;22.50;98.80
31819;DHT22;18384;48.860;9.188;2022-07-21T01:47:48;22.40;98.90
31819;DHT22;18384;48.860;9.188;2022-07-21T01:50:14;22.40;99.00
31819;DHT22;18384;48.860;9.188;2022-07-21T01:52:40;22.40;99.10
31819;DHT22;18384;48.860;9.188;2022-07-21T01:55:07;22.30;99.50
31819;DHT22;18384;48.860;9.188;2022-07-21T01:57:33;22.10;99.60
31819;DHT22;18384;48.860;9.188;2022-07-21T02:00:00;22.10;99.90
31819;DHT22;18384;48.860;9.188;2022-07-21T02:02:26;22.30;99.60
31819;DHT22;18384;48.860;9.188;2022-07-21T02:04:52;22.30;99.70
31819;DHT22;18384;48.860;9.188;2022-07-21T02:07:18;22.20;99.50
31819;DHT22;18384;48.860;9.188;2022-07-21T02:09:44;22.20;99.50
31819;DHT22;18384;48.860;9.188;2022-07-21T02:12:10;22.20;99.90
31819;DHT22;18384;48.860;9.188;2022-07-21T02:14:37;22.20;99.90
31819;DHT22;18384;48.860;9.188;2022-07-21T02:17:03;22.30;99.90
31819;DHT22;18384;48.860;9.188;2022-07-21T02:19:29;22.40;99.90
31819;DHT22;18384;48.860;9.188;2022-07-21T02:21:55;22.40;99.90
31819;DHT22;18384;48.860;9.188;2022-07-21T02:24:21;22.40;99.80
31819;DHT22;18384;48.860;9.188;2022-07-21T02:26:47;22.30;99.90
31819;DHT22;18384;48.860;9.188;2022-07-21T02:29:13;22.20;99.90
31819;DHT22;18384;48.860;9.188;2022-07-21T02:31:39;22.30;99.90
31819;DHT22;18384;48.860;9.188;2022-07-21T02:34:05;22.30;99.90
31819;DHT22;18384;48.860;9.188;2022-07-21T02:36:32;22.30;99.90
31819;DHT22;18384;48.860;9.188;2022-07-21T02:38:59;22.40;99.90
31819;DHT22;18384;48.860;9.188;2022-07-21T02:41:25;22.40;99.90
31819;DHT22;18384;48.860;9.188;2022-07-21T02:43:51;22.40;99.90
31819;DHT22;18384;48.860;9.188;2022-07-21T02:46:18;22.50;99.90
31819;DHT22;18384;48.860;9.188;2022-07-21T02:48:44;22.50;99.90
31819;DHT22;18384;48.860;9.188;2022-07-21T02:51:10;22.50;99.90
31819;DHT22;18384;48.860;9.188;2022-07-21T02:53:36;22.50;99.90
31819;DHT22;18384;48.860;9.188;2022-07-21T02:56:02;22.50;99.90
31819;DHT22;18384;48.860;9.188;2022-07-21T02:58:29;22.50;99.90
31819;DHT22;18384;48.860;9.188;2022-07-21T03:01:01;22.60;99.90
31819;DHT22;18384;48.860;9.188;2022-07-21T03:03:31;22.50;99.90
31819;DHT22;18384;48.860;9.188;2022-07-21T03:06:00;22.60;99.90
31819;DHT22;18384;48.860;9.188;2022-07-21T03:08:27;22.50;99.90
31819;DHT22;18384;48.860;9.188;2022-07-21T03:10:54;22.50;99.90
31819;DHT22;18384;48.860;9.188;2022-07-21T03:13:20;22.50;99.90
31819;DHT22;18384;48.860;9.188;2022-07-21T03:15:46;22.60;99.90
31819;DHT22;18384;48.860;9.188;2022-07-21T03:18:13;22.60;99.90
31819;DHT22;18384;48.860;9.188;2022-07-21T03:23:07;22.60;99.90
31819;DHT22;18384;48.860;9.188;2022-07-21T03:25:34;22.70;99.90
31819;DHT22;18384;48.860;9.188;2022-07-21T03:28:00;22.60;99.90
31819;DHT22;18384;48.860;9.188;2022-07-21T03:30:26;22.60;99.70
31819;DHT22;18384;48.860;9.188;2022-07-21T03:32:54;22.60;99.60
31819;DHT22;18384;48.860;9.188;2022-07-21T03:35:20;22.60;99.50
31819;DHT22;18384;48.860;9.188;2022-07-21T03:37:51;22.60;99.70
31819;DHT22;18384;48.860;9.188;2022-07-21T03:40:20;22.50;99.40
31819;DHT22;18384;48.860;9.188;2022-07-21T03:42:54;22.50;99.50
31819;DHT22;18384;48.860;9.188;2022-07-21T03:45:22;22.50;99.60
31819;DHT22;18384;48.860;9.188;2022-07-21T03:47:49;22.50;99.40
31819;DHT22;18384;48.860;9.188;2022-07-21T03:50:15;22.50;99.70
31819;DHT22;18384;48.860;9.188;2022-07-21T03:52:45;22.40;99.90
31819;DHT22;18384;48.860;9.188;2022-07-21T03:55:11;22.50;99.60
31819;DHT22;18384;48.860;9.188;2022-07-21T03:57:44;22.40;99.90
31819;DHT22;18384;48.860;9.188;2022-07-21T04:00:52;22.40;99.90
31819;DHT22;18384;48.860;9.188;2022-07-21T04:03:18;22.40;99.90
31819;DHT22;18384;48.860;9.188;2022-07-21T04:05:44;22.40;99.90
31819;DHT22;18384;48.860;9.188;2022-07-21T04:08:11;22.50;99.60
31819;DHT22;18384;48.860;9.188;2022-07-21T04:10:40;22.50;99.50
31819;DHT22;18384;48.860;9.188;2022-07-21T04:13:11;22.40;99.80
31819;DHT22;18384;48.860;9.188;2022-07-21T04:15:38;22.40;99.90
31819;DHT22;18384;48.860;9.188;2022-07-21T04:18:06;22.80;99.90
31819;DHT22;18384;48.860;9.188;2022-07-21T04:20:33;24.00;99.90
31819;DHT22;18384;48.860;9.188;2022-07-21T04:23:00;22.50;99.60
31819;DHT22;18384;48.860;9.188;2022-07-21T04:25:26;22.50;99.10
31819;DHT22;18384;48.860;9.188;2022-07-21T04:27:53;22.50;99.30
31819;DHT22;18384;48.860;9.188;2022-07-21T04:30:20;22.50;99.40
31819;DHT22;18384;48.860;9.188;2022-07-21T04:32:47;22.50;99.20
31819;DHT22;18384;48.860;9.188;2022-07-21T04:35:14;22.50;99.10
31819;DHT22;18384;48.860;9.188;2022-07-21T04:37:40;22.50;99.40
31819;DHT22;18384;48.860;9.188;2022-07-21T04:40:09;22.40;99.80
31819;DHT22;18384;48.860;9.188;2022-07-21T04:42:36;22.50;99.40
31819;DHT22;18384;48.860;9.188;2022-07-21T04:45:04;22.40;99.10
31819;DHT22;18384;48.860;9.188;2022-07-21T04:47:31;22.40;99.10
31819;DHT22;18384;48.860;9.188;2022-07-21T04:49:57;22.40;99.10
31819;DHT22;18384;48.860;9.188;2022-07-21T04:52:23;22.30;99.40
31819;DHT22;18384;48.860;9.188;2022-07-21T04:54:49;22.30;99.60
31819;DHT22;18384;48.860;9.188;2022-07-21T04:57:16;22.30;99.10
31819;DHT22;18384;48.860;9.188;2022-07-21T04:59:42;22.40;98.90
31819;DHT22;18384;48.860;9.188;2022-07-21T05:02:08;22.40;98.90
31819;DHT22;18384;48.860;9.188;2022-07-21T05:04:34;22.40;99.40
31819;DHT22;18384;48.860;9.188;2022-07-21T05:07:00;22.50;99.70
31819;DHT22;18384;48.860;9.188;2022-07-21T05:09:26;22.60;99.50
31819;DHT22;18384;48.860;9.188;2022-07-21T05:11:52;22.70;98.90
31819;DHT22;18384;48.860;9.188;2022-07-21T05:14:18;22.70;98.40
31819;DHT22;18384;48.860;9.188;2022-07-21T05:16:44;22.90;98.20
31819;DHT22;18384;48.860;9.188;2022-07-21T05:19:10;23.00;98.20
31819;DHT22;18384;48.860;9.188;2022-07-21T05:21:36;23.00;98.30
31819;DHT22;18384;48.860;9.188;2022-07-21T05:24:03;23.00;98.40
31819;DHT22;18384;48.860;9.188;2022-07-21T05:26:29;23.10;98.00
31819;DHT22;18384;48.860;9.188;2022-07-21T05:28:55;23.10;97.70
31819;DHT22;18384;48.860;9.188;2022-07-21T05:31:21;23.20;97.60
31819;DHT22;18384;48.860;9.188;2022-07-21T05:33:47;23.20;97.40
31819;DHT22;18384;48.860;9.188;2022-07-21T05:36:13;23.30;97.20
31819;DHT22;18384;48.860;9.188;2022-07-21T05:38:39;23.40;96.80
31819;DHT22;18384;48.860;9.188;2022-07-21T05:41:05;23.40;96.80
31819;DHT22;18384;48.860;9.188;2022-07-21T05:43:31;23.50;97.70
31819;DHT22;18384;48.860;9.188;2022-07-21T05:45:58;23.50;97.40
31819;DHT22;18384;48.860;9.188;2022-07-21T05:48:24;23.50;97.30
31819;DHT22;18384;48.860;9.188;2022-07-21T05:50:50;23.60;96.50
31819;DHT22;18384;48.860;9.188;2022-07-21T05:53:16;23.70;97.00
31819;DHT22;18384;48.860;9.188;2022-07-21T05:55:42;23.70;96.90
31819;DHT22;18384;48.860;9.188;2022-07-21T05:58:08;23.90;97.20
31819;DHT22;18384;48.860;9.188;2022-07-21T06:00:34;23.80;96.80
31819;DHT22;18384;48.860;9.188;2022-07-21T06:03:00;23.90;96.70
31819;DHT22;18384;48.860;9.188;2022-07-21T06:05:26;23.90;96.50
31819;DHT22;18384;48.860;9.188;2022-07-21T06:07:52;24.00;96.00
31819;DHT22;18384;48.860;9.188;2022-07-21T06:10:18;24.10;95.50
31819;DHT22;18384;48.860;9.188;2022-07-21T06:12:44;24.20;95.50
31819;DHT22;18384;48.860;9.188;2022-07-21T06:15:11;24.40;95.10
31819;DHT22;18384;48.860;9.188;2022-07-21T06:17:42;24.50;95.10
31819;DHT22;18384;48.860;9.188;2022-07-21T06:20:10;24.40;95.30
31819;DHT22;18384;48.860;9.188;2022-07-21T06:22:37;24.20;96.10
31819;DHT22;18384;48.860;9.188;2022-07-21T06:25:04;24.30;95.50
31819;DHT22;18384;48.860;9.188;2022-07-21T06:27:30;24.40;95.90
31819;DHT22;18384;48.860;9.188;2022-07-21T06:29:59;24.40;95.70
31819;DHT22;18384;48.860;9.188;2022-07-21T06:32:26;24.40;95.00
31819;DHT22;18384;48.860;9.188;2022-07-21T06:34:52;24.30;94.50
31819;DHT22;18384;48.860;9.188;2022-07-21T06:37:18;24.40;94.20
31819;DHT22;18384;48.860;9.188;2022-07-21T06:39:44;24.30;94.80
31819;DHT22;18384;48.860;9.188;2022-07-21T06:42:10;24.30;94.90
31819;DHT22;18384;48.860;9.188;2022-07-21T06:44:36;24.50;94.80
31819;DHT22;18384;48.860;9.188;2022-07-21T06:47:02;23.10;94.20
31819;DHT22;18384;48.860;9.188;2022-07-21T06:49:32;24.30;93.90
31819;DHT22;18384;48.860;9.188;2022-07-21T06:51:59;24.30;93.50
31819;DHT22;18384;48.860;9.188;2022-07-21T06:54:25;24.30;95.70
31819;DHT22;18384;48.860;9.188;2022-07-21T06:56:51;24.10;94.20
31819;DHT22;18384;48.860;9.188;2022-07-21T06:59:18;24.10;94.80
31819;DHT22;18384;48.860;9.188;2022-07-21T07:01:44;24.20;94.90
31819;DHT22;18384;48.860;9.188;2022-07-21T07:04:10;24.30;93.90
31819;DHT22;18384;48.860;9.188;2022-07-21T07:06:36;24.40;94.40
31819;DHT22;18384;48.860;9.188;2022-07-21T07:09:02;24.40;94.10
31819;DHT22;18384;48.860;9.188;2022-07-21T07:11:28;24.40;93.60
31819;DHT22;18384;48.860;9.188;2022-07-21T07:13:54;24.40;93.80
31819;DHT22;18384;48.860;9.188;2022-07-21T07:16:20;24.40;93.70
31819;DHT22;18384;48.860;9.188;2022-07-21T07:18:46;24.40;93.70
31819;DHT22;18384;48.860;9.188;2022-07-21T07:21:12;24.60;94.10
31819;DHT22;18384;48.860;9.188;2022-07-21T07:23:39;24.80;93.20
31819;DHT22;18384;48.860;9.188;2022-07-21T07:26:05;24.80;92.80
31819;DHT22;18384;48.860;9.188;2022-07-21T07:28:32;24.90;92.20
31819;DHT22;18384;48.860;9.188;2022-07-21T07:30:58;25.00;92.90
31819;DHT22;18384;48.860;9.188;2022-07-21T07:33:24;25.10;92.60
31819;DHT22;18384;48.860;9.188;2022-07-21T07:35:51;25.10;91.70
31819;DHT22;18384;48.860;9.188;2022-07-21T07:38:18;25.30;91.40
31819;DHT22;18384;48.860;9.188;2022-07-21T07:40:44;25.40;91.30
31819;DHT22;18384;48.860;9.188;2022-07-21T07:43:10;25.50;92.40
31819;DHT22;18384;48.860;9.188;2022-07-21T07:45:36;25.60;91.80
31819;DHT22;18384;48.860;9.188;2022-07-21T07:48:04;25.70;90.20
31819;DHT22;18384;48.860;9.188;2022-07-21T07:50:30;25.70;91.70
31819;DHT22;18384;48.860;9.188;2022-07-21T07:52:56;25.70;91.10
31819;DHT22;18384;48.860;9.188;2022-07-21T07:55:23;25.80;88.60
31819;DHT22;18384;48.860;9.188;2022-07-21T07:57:49;25.70;88.80
31819;DHT22;18384;48.860;9.188;2022-07-21T08:00:16;25.50;91.30
31819;DHT22;18384;48.860;9.188;2022-07-21T08:02:43;25.50;90.80
31819;DHT22;18384;48.860;9.188;2022-07-21T08:05:09;25.60;91.10
31819;DHT22;18384;48.860;9.188;2022-07-21T08:07:36;25.60;90.00
31819;DHT22;18384;48.860;9.188;2022-07-21T08:10:05;25.60;90.00
31819;DHT22;18384;48.860;9.188;2022-07-21T08:12:35;25.60;89.70
31819;DHT22;18384;48.860;9.188;2022-07-21T08:15:03;25.50;88.80
31819;DHT22;18384;48.860;9.188;2022-07-21T08:17:30;25.30;90.70
31819;DHT22;18384;48.860;9.188;2022-07-21T08:19:57;25.20;89.10
31819;DHT22;18384;48.860;9.188;2022-07-21T08:22:23;25.00;90.30
31819;DHT22;18384;48.860;9.188;2022-07-21T08:24:49;24.80;90.70
31819;DHT22;18384;48.860;9.188;2022-07-21T08:27:15;24.90;90.50
31819;DHT22;18384;48.860;9.188;2022-07-21T08:29:41;24.90;90.20
31819;DHT22;18384;48.860;9.188;2022-07-21T08:32:07;25.10;90.60
31819;DHT22;18384;48.860;9.188;2022-07-21T08:34:33;25.20;90.00
31819;DHT22;18384;48.860;9.188;2022-07-21T08:36:59;25.40;90.50
31819;DHT22;18384;48.860;9.188;2022-07-21T08:39:25;25.60;90.20
31819;DHT22;18384;48.860;9.188;2022-07-21T08:41:52;25.60;89.50
31819;DHT22;18384;48.860;9.188;2022-07-21T08:44:21;25.90;89.50
31819;DHT22;18384;48.860;9.188;2022-07-21T08:46:50;26.20;89.20
31819;DHT22;18384;48.860;9.188;2022-07-21T08:49:20;26.40;82.90
31819;DHT22;18384;48.860;9.188;2022-07-21T08:51:48;26.40;86.60
31819;DHT22;18384;48.860;9.188;2022-07-21T08:54:20;26.40;85.00
31819;DHT22;18384;48.860;9.188;2022-07-21T08:56:47;26.50;85.30
31819;DHT22;18384;48.860;9.188;2022-07-21T08:59:14;26.60;86.20
31819;DHT22;18384;48.860;9.188;2022-07-21T09:01:40;26.60;83.70
31819;DHT22;18384;48.860;9.188;2022-07-21T09:04:20;26.40;82.00
31819;DHT22;18384;48.860;9.188;2022-07-21T09:06:57;26.30;83.40
31819;DHT22;18384;48.860;9.188;2022-07-21T09:09:32;26.00;85.00
31819;DHT22;18384;48.860;9.188;2022-07-21T09:11:59;26.20;83.50
31819;DHT22;18384;48.860;9.188;2022-07-21T09:14:30;26.20;84.90
31819;DHT22;18384;48.860;9.188;2022-07-21T09:17:00;26.20;84.50
31819;DHT22;18384;48.860;9.188;2022-07-21T09:19:33;26.20;82.80
31819;DHT22;18384;48.860;9.188;2022-07-21T09:22:13;26.30;81.80
31819;DHT22;18384;48.860;9.188;2022-07-21T09:24:52;26.20;83.80
31819;DHT22;18384;48.860;9.188;2022-07-21T09:27:23;26.10;84.80
31819;DHT22;18384;48.860;9.188;2022-07-21T09:29:56;26.10;84.70
31819;DHT22;18384;48.860;9.188;2022-07-21T09:32:31;26.20;85.00
31819;DHT22;18384;48.860;9.188;2022-07-21T09:35:04;26.60;82.50
31819;DHT22;18384;48.860;9.188;2022-07-21T09:37:33;26.70;82.60
31819;DHT22;18384;48.860;9.188;2022-07-21T09:40:04;26.80;77.90
31819;DHT22;18384;48.860;9.188;2022-07-21T09:42:42;26.90;79.50
31819;DHT22;18384;48.860;9.188;2022-07-21T09:45:13;26.90;78.00
31819;DHT22;18384;48.860;9.188;2022-07-21T09:47:43;27.00;77.70
31819;DHT22;18384;48.860;9.188;2022-07-21T09:50:13;27.20;79.20
31819;DHT22;18384;48.860;9.188;2022-07-21T09:52:43;27.10;78.10
31819;DHT22;18384;48.860;9.188;2022-07-21T09:55:12;27.20;78.80
31819;DHT22;18384;48.860;9.188;2022-07-21T09:57:40;27.30;77.00
31819;DHT22;18384;48.860;9.188;2022-07-21T10:00:13;27.30;77.60
31819;DHT22;18384;48.860;9.188;2022-07-21T10:02:43;27.40;77.30
31819;DHT22;18384;48.860;9.188;2022-07-21T10:05:13;27.30;78.10
31819;DHT22;18384;48.860;9.188;2022-07-21T10:07:45;27.10;78.50
31819;DHT22;18384;48.860;9.188;2022-07-21T10:10:13;26.70;78.90
31819;DHT22;18384;48.860;9.188;2022-07-21T10:12:41;26.60;79.30
31819;DHT22;18384;48.860;9.188;2022-07-21T10:15:08;26.40;79.60
31819;DHT22;18384;48.860;9.188;2022-07-21T10:17:35;26.30;80.30
31819;DHT22;18384;48.860;9.188;2022-07-21T10:20:13;26.10;80.10
31819;DHT22;18384;48.860;9.188;2022-07-21T10:23:21;26.10;80.80
31819;DHT22;18384;48.860;9.188;2022-07-21T10:26:03;25.90;80.50
31819;DHT22;18384;48.860;9.188;2022-07-21T10:28:32;25.70;81.40
31819;DHT22;18384;48.860;9.188;2022-07-21T10:30:59;25.70;82.10
31819;DHT22;18384;48.860;9.188;2022-07-21T10:34:00;25.70;82.40
31819;DHT22;18384;48.860;9.188;2022-07-21T10:36:48;25.90;81.00
31819;DHT22;18384;48.860;9.188;2022-07-21T10:39:18;25.90;81.40
31819;DHT22;18384;48.860;9.188;2022-07-21T10:41:51;26.00;81.00
31819;DHT22;18384;48.860;9.188;2022-07-21T10:45:38;26.10;79.90
31819;DHT22;18384;48.860;9.188;2022-07-21T10:48:06;26.20;77.70
31819;DHT22;18384;48.860;9.188;2022-07-21T10:50:45;26.40;77.60
31819;DHT22;18384;48.860;9.188;2022-07-21T10:53:20;26.50;80.20
31819;DHT22;18384;48.860;9.188;2022-07-21T10:55:48;26.60;80.30
31819;DHT22;18384;48.860;9.188;2022-07-21T10:58:28;26.80;77.90
31819;DHT22;18384;48.860;9.188;2022-07-21T11:02:24;27.00;77.50
31819;DHT22;18384;48.860;9.188;2022-07-21T11:05:05;27.30;74.40
31819;DHT22;18384;48.860;9.188;2022-07-21T11:10:48;27.50;74.10
31819;DHT22;18384;48.860;9.188;2022-07-21T11:13:17;27.60;73.70
31819;DHT22;18384;48.860;9.188;2022-07-21T11:16:00;27.60;73.50
31819;DHT22;18384;48.860;9.188;2022-07-21T11:18:30;27.60;73.40
31819;DHT22;18384;48.860;9.188;2022-07-21T11:21:07;27.50;73.10
31819;DHT22;18384;48.860;9.188;2022-07-21T11:23:45;27.40;72.40
31819;DHT22;18384;48.860;9.188;2022-07-21T11:26:16;27.30;72.80
31819;DHT22;18384;48.860;9.188;2022-07-21T11:28:44;27.20;72.50
31819;DHT22;18384;48.860;9.188;2022-07-21T11:31:17;27.10;72.20
31819;DHT22;18384;48.860;9.188;2022-07-21T11:33:47;27.10;72.20
31819;DHT22;18384;48.860;9.188;2022-07-21T11:36:28;27.00;72.90
31819;DHT22;18384;48.860;9.188;2022-07-21T11:39:14;27.10;72.60
31819;DHT22;18384;48.860;9.188;2022-07-21T11:41:42;27.20;72.20
31819;DHT22;18384;48.860;9.188;2022-07-21T11:44:10;27.20;71.40
31819;DHT22;18384;48.860;9.188;2022-07-21T11:46:54;27.30;71.40
31819;DHT22;18384;48.860;9.188;2022-07-21T11:49:21;27.30;71.40
31819;DHT22;18384;48.860;9.188;2022-07-21T11:51:56;27.40;71.30
31819;DHT22;18384;48.860;9.188;2022-07-21T11:54:33;27.60;75.00
31819;DHT22;18384;48.860;9.188;2022-07-21T11:57:06;27.60;70.60
31819;DHT22;18384;48.860;9.188;2022-07-21T11:59:33;27.70;71.50
31819;DHT22;18384;48.860;9.188;2022-07-21T12:02:07;27.70;72.80
31819;DHT22;18384;48.860;9.188;2022-07-21T12:04:49;27.70;71.00
31819;DHT22;18384;48.860;9.188;2022-07-21T12:07:24;27.70;71.00
31819;DHT22;18384;48.860;9.188;2022-07-21T12:09:54;27.70;71.90
31819;DHT22;18384;48.860;9.188;2022-07-21T12:12:39;27.60;71.10
31819;DHT22;18384;48.860;9.188;2022-07-21T12:15:24;27.70;72.20
31819;DHT22;18384;48.860;9.188;2022-07-21T12:17:57;27.70;70.70
31819;DHT22;18384;48.860;9.188;2022-07-21T12:20:36;27.70;70.70
31819;DHT22;18384;48.860;9.188;2022-07-21T12:23:29;27.70;71.10
31819;DHT22;18384;48.860;9.188;2022-07-21T12:25:59;27.80;71.50
31819;DHT22;18384;48.860;9.188;2022-07-21T12:28:47;27.70;72.60
31819;DHT22;18384;48.860;9.188;2022-07-21T12:31:19;27.60;72.30
31819;DHT22;18384;48.860;9.188;2022-07-21T12:33:50;27.60;72.20
31819;DHT22;18384;48.860;9.188;2022-07-21T12:36:19;27.60;74.50
31819;DHT22;18384;48.860;9.188;2022-07-21T12:38:48;27.60;71.70
31819;DHT22;18384;48.860;9.188;2022-07-21T12:41:23;27.50;71.20
31819;DHT22;18384;48.860;9.188;2022-07-21T12:43:57;27.50;72.50
31819;DHT22;18384;48.860;9.188;2022-07-21T12:46:29;27.50;73.00
31819;DHT22;18384;48.860;9.188;2022-07-21T12:49:03;27.50;73.40
31819;DHT22;18384;48.860;9.188;2022-07-21T12:51:30;27.50;70.40
31819;DHT22;18384;48.860;9.188;2022-07-21T12:53:57;27.50;70.50
31819;DHT22;18384;48.860;9.188;2022-07-21T12:56:25;27.40;71.20
31819;DHT22;18384;48.860;9.188;2022-07-21T12:58:55;27.40;71.10
31819;DHT22;18384;48.860;9.188;2022-07-21T13:01:25;27.40;71.20
31819;DHT22;18384;48.860;9.188;2022-07-21T13:03:52;27.30;71.40
31819;DHT22;18384;48.860;9.188;2022-07-21T13:06:20;27.30;73.40
31819;DHT22;18384;48.860;9.188;2022-07-21T13:08:47;27.30;72.10
31819;DHT22;18384;48.860;9.188;2022-07-21T13:11:17;27.40;71.90
31819;DHT22;18384;48.860;9.188;2022-07-21T13:13:46;27.30;70.80
31819;DHT22;18384;48.860;9.188;2022-07-21T13:16:13;27.30;72.60
31819;DHT22;18384;48.860;9.188;2022-07-21T13:18:39;27.40;72.40
31819;DHT22;18384;48.860;9.188;2022-07-21T13:21:06;27.50;72.40
31819;DHT22;18384;48.860;9.188;2022-07-21T13:23:32;27.60;71.30
31819;DHT22;18384;48.860;9.188;2022-07-21T13:25:58;27.60;70.60
31819;DHT22;18384;48.860;9.188;2022-07-21T13:28:24;27.70;71.30
31819;DHT22;18384;48.860;9.188;2022-07-21T13:30:51;27.70;70.30
31819;DHT22;18384;48.860;9.188;2022-07-21T13:33:18;27.70;69.90
31819;DHT22;18384;48.860;9.188;2022-07-21T13:35:44;27.70;70.90
31819;DHT22;18384;48.860;9.188;2022-07-21T13:38:10;27.70;70.30
31819;DHT22;18384;48.860;9.188;2022-07-21T13:40:37;27.70;69.90
31819;DHT22;18384;48.860;9.188;2022-07-21T13:43:04;27.70;71.90
31819;DHT22;18384;48.860;9.188;2022-07-21T13:45:31;27.70;69.90
31819;DHT22;18384;48.860;9.188;2022-07-21T13:47:57;27.60;69.20
31819;DHT22;18384;48.860;9.188;2022-07-21T13:50:23;27.60;69.00
31819;DHT22;18384;48.860;9.188;2022-07-21T13:52:49;27.50;67.70
31819;DHT22;18384;48.860;9.188;2022-07-21T13:55:15;27.50;67.20
31819;DHT22;18384;48.860;9.188;2022-07-21T13:57:42;27.50;67.20
31819;DHT22;18384;48.860;9.188;2022-07-21T14:00:11;27.50;66.60
31819;DHT22;18384;48.860;9.188;2022-07-21T14:02:37;27.50;67.80
31819;DHT22;18384;48.860;9.188;2022-07-21T14:05:04;27.60;67.90
31819;DHT22;18384;48.860;9.188;2022-07-21T14:07:30;27.60;67.00
31819;DHT22;18384;48.860;9.188;2022-07-21T14:09:56;27.70;67.30
31819;DHT22;18384;48.860;9.188;2022-07-21T14:12:23;27.70;66.10
31819;DHT22;18384;48.860;9.188;2022-07-21T14:14:49;27.70;66.20
31819;DHT22;18384;48.860;9.188;2022-07-21T14:17:16;27.70;66.20
31819;DHT22;18384;48.860;9.188;2022-07-21T14:19:43;27.70;65.90
31819;DHT22;18384;48.860;9.188;2022-07-21T14:22:15;27.80;65.80
31819;DHT22;18384;48.860;9.188;2022-07-21T14:24:43;27.80;67.00
31819;DHT22;18384;48.860;9.188;2022-07-21T14:27:56;27.80;66.90
31819;DHT22;18384;48.860;9.188;2022-07-21T14:30:25;27.90;65.60
31819;DHT22;18384;48.860;9.188;2022-07-21T14:32:52;27.90;65.10
31819;DHT22;18384;48.860;9.188;2022-07-21T14:35:18;27.90;65.50
31819;DHT22;18384;48.860;9.188;2022-07-21T14:37:47;27.80;66.10
31819;DHT22;18384;48.860;9.188;2022-07-21T14:40:15;27.80;67.40
31819;DHT22;18384;48.860;9.188;2022-07-21T14:42:42;27.70;66.50
31819;DHT22;18384;48.860;9.188;2022-07-21T14:45:09;27.80;66.20
31819;DHT22;18384;48.860;9.188;2022-07-21T14:47:35;27.80;67.20
31819;DHT22;18384;48.860;9.188;2022-07-21T14:50:01;27.80;66.20
31819;DHT22;18384;48.860;9.188;2022-07-21T14:52:27;27.90;66.30
31819;DHT22;18384;48.860;9.188;2022-07-21T14:54:53;27.90;66.60
31819;DHT22;18384;48.860;9.188;2022-07-21T14:57:20;27.90;66.20
31819;DHT22;18384;48.860;9.188;2022-07-21T14:59:46;28.00;65.70
31819;DHT22;18384;48.860;9.188;2022-07-21T15:02:12;28.00;66.20
31819;DHT22;18384;48.860;9.188;2022-07-21T15:04:38;28.10;65.40
31819;DHT22;18384;48.860;9.188;2022-07-21T15:07:05;28.20;67.50
31819;DHT22;18384;48.860;9.188;2022-07-21T15:09:32;28.40;66.10
31819;DHT22;18384;48.860;9.188;2022-07-21T15:11:58;28.40;66.80
31819;DHT22;18384;48.860;9.188;2022-07-21T15:14:24;28.50;65.60
31819;DHT22;18384;48.860;9.188;2022-07-21T15:16:50;28.50;64.90
31819;DHT22;18384;48.860;9.188;2022-07-21T15:19:16;28.50;64.70
31819;DHT22;18384;48.860;9.188;2022-07-21T15:21:42;28.50;65.70
31819;DHT22;18384;48.860;9.188;2022-07-21T15:24:10;28.50;64.40
31819;DHT22;18384;48.860;9.188;2022-07-21T15:26:36;28.40;65.30
31819;DHT22;18384;48.860;9.188;2022-07-21T15:29:02;28.30;65.40
31819;DHT22;18384;48.860;9.188;2022-07-21T15:31:31;28.20;65.30
31819;DHT22;18384;48.860;9.188;2022-07-21T15:33:58;28.10;64.40
31819;DHT22;18384;48.860;9.188;2022-07-21T15:36:24;28.00;65.40
31819;DHT22;18384;48.860;9.188;2022-07-21T15:38:50;28.00;63.80
31819;DHT22;18384;48.860;9.188;2022-07-21T15:41:17;27.90;64.20
31819;DHT22;18384;48.860;9.188;2022-07-21T15:43:43;27.90;64.30
31819;DHT22;18384;48.860;9.188;2022-07-21T15:46:09;27.90;64.40
31819;DHT22;18384;48.860;9.188;2022-07-21T15:48:36;27.90;66.40